Time;durP1;ratioP1;P1;durP2;ratioP2;P2;SDS_P1;SDS_P2;PMS_P1;PMS_P2;Temp;Humidity;BMP_temperature;BMP_pressure;BME280_temperature;BME280_humidity;BME280_pressure;Samples;Min_cycle;Max_cycle;Signal;HPM_P1;HPM_P2
2023/12/02 00:00:14;;;;;;;10.75;7.07;;;;;;;;;;5012590;28;20381;-79
2023/12/02 00:02:40;;;;;;;10.10;6.78;;;;;;;;;;5024747;28;20021;-80
2023/12/02 00:05:07;;;;;;;9.02;6.68;;;;;;;;;;5027781;28;20023;-78
2023/12/02 00:07:33;;;;;;;9.32;6.57;;;;;;;;;;5023852;28;20018;-77
2023/12/02 00:09:59;;;;;;;9.13;6.22;;;;;;;;;;5023621;28;20179;-79
2023/12/02 00:12:25;;;;;;;9.65;6.45;;;;;;;;;;5023326;28;20018;-77
2023/12/02 00:14:51;;;;;;;9.52;6.55;;;;;;;;;;5033889;28;20049;-77
2023/12/02 00:17:17;;;;;;;11.13;6.35;;;;;;;;;;5020615;28;20034;-76
2023/12/02 00:19:43;;;;;;;11.68;7.00;;;;;;;;;;5029843;28;20022;-77
2023/12/02 00:22:09;;;;;;;11.20;7.35;;;;;;;;;;5029001;28;20033;-79
2023/12/02 00:24:35;;;;;;;10.50;7.22;;;;;;;;;;5010830;28;20104;-79
2023/12/02 00:27:01;;;;;;;8.75;6.22;;;;;;;;;;5011290;28;20488;-77
2023/12/02 00:29:28;;;;;;;9.38;6.35;;;;;;;;;;5006706;28;20026;-79
2023/12/02 00:31:54;;;;;;;10.82;7.10;;;;;;;;;;5001652;28;20414;-79
2023/12/02 00:34:20;;;;;;;10.73;7.57;;;;;;;;;;5010235;28;20014;-80
2023/12/02 00:36:47;;;;;;;10.48;7.35;;;;;;;;;;5007548;28;20427;-80
2023/12/02 00:39:13;;;;;;;11.25;7.53;;;;;;;;;;5003131;28;20022;-80
2023/12/02 00:41:39;;;;;;;11.00;7.20;;;;;;;;;;5005771;28;20026;-80
2023/12/02 00:44:05;;;;;;;9.65;6.75;;;;;;;;;;5017851;28;20029;-79
2023/12/02 00:46:32;;;;;;;12.32;7.60;;;;;;;;;;5003017;28;20030;-79
2023/12/02 00:48:58;;;;;;;11.60;7.65;;;;;;;;;;5000252;28;20018;-79
2023/12/02 00:51:24;;;;;;;10.73;7.10;;;;;;;;;;5001386;28;20027;-79
2023/12/02 00:53:50;;;;;;;12.18;8.02;;;;;;;;;;5002784;28;20033;-79
2023/12/02 00:56:17;;;;;;;10.57;7.32;;;;;;;;;;5004997;28;20026;-79
2023/12/02 00:58:43;;;;;;;12.63;8.10;;;;;;;;;;5003467;28;20022;-77
2023/12/02 01:01:09;;;;;;;12.63;8.75;;;;;;;;;;5018477;28;20033;-78
2023/12/02 01:03:35;;;;;;;13.25;8.23;;;;;;;;;;5022548;28;20044;-80
2023/12/02 01:06:01;;;;;;;12.07;7.75;;;;;;;;;;5009269;28;20042;-82
2023/12/02 01:08:27;;;;;;;12.20;7.95;;;;;;;;;;5019202;28;20026;-79
2023/12/02 01:10:53;;;;;;;11.60;7.47;;;;;;;;;;5016558;28;20053;-79
2023/12/02 01:13:20;;;;;;;12.27;8.15;;;;;;;;;;5018407;28;20052;-78
2023/12/02 01:15:46;;;;;;;11.45;7.70;;;;;;;;;;5017946;28;20041;-77
2023/12/02 01:18:12;;;;;;;11.93;7.72;;;;;;;;;;5029450;28;20157;-77
2023/12/02 01:20:38;;;;;;;10.93;7.20;;;;;;;;;;5019084;28;20103;-76
2023/12/02 01:23:04;;;;;;;12.45;7.68;;;;;;;;;;5025498;28;20035;-78
2023/12/02 01:25:30;;;;;;;10.38;6.95;;;;;;;;;;5025837;28;20019;-76
2023/12/02 01:27:56;;;;;;;9.57;6.55;;;;;;;;;;5039337;28;20018;-76
2023/12/02 01:30:22;;;;;;;10.70;6.90;;;;;;;;;;5037865;28;20040;-75
2023/12/02 01:32:48;;;;;;;10.60;6.70;;;;;;;;;;5028565;28;20010;-76
2023/12/02 01:35:15;;;;;;;10.48;6.93;;;;;;;;;;5037180;28;20021;-78
2023/12/02 01:37:41;;;;;;;11.23;7.55;;;;;;;;;;5026885;28;20006;-76
2023/12/02 01:40:07;;;;;;;12.00;7.82;;;;;;;;;;5018227;28;20074;-76
2023/12/02 01:42:35;;;;;;;13.38;9.07;;;;;;;;;;5017146;28;20041;-79
2023/12/02 01:45:01;;;;;;;14.02;9.13;;;;;;;;;;5021356;28;20040;-78
2023/12/02 01:47:27;;;;;;;12.52;8.55;;;;;;;;;;5013203;28;20070;-78
2023/12/02 01:49:54;;;;;;;13.68;7.72;;;;;;;;;;5023084;28;20026;-79
2023/12/02 01:52:20;;;;;;;15.23;9.65;;;;;;;;;;5030361;28;20045;-77
2023/12/02 01:54:46;;;;;;;13.73;7.97;;;;;;;;;;5019559;28;20022;-77
2023/12/02 01:57:13;;;;;;;12.68;7.90;;;;;;;;;;5031213;28;20049;-77
2023/12/02 01:59:45;;;;;;;12.85;8.55;;;;;;;;;;5019865;28;20029;-77
2023/12/02 02:02:11;;;;;;;15.65;8.68;;;;;;;;;;5023898;28;20030;-77
2023/12/02 02:04:37;;;;;;;13.30;7.80;;;;;;;;;;5013564;28;20034;-78
2023/12/02 02:07:03;;;;;;;11.43;7.63;;;;;;;;;;5007910;28;20123;-78
2023/12/02 02:09:44;;;;;;;12.35;7.43;;;;;;;;;;5024993;28;20032;-78
2023/12/02 02:12:11;;;;;;;13.30;7.75;;;;;;;;;;5018694;28;20018;-78
2023/12/02 02:14:37;;;;;;;12.20;7.45;;;;;;;;;;5005988;28;20465;-77
2023/12/02 02:17:03;;;;;;;10.48;7.20;;;;;;;;;;5003737;28;20054;-78
2023/12/02 02:19:30;;;;;;;12.00;7.63;;;;;;;;;;5018053;28;20032;-79
2023/12/02 02:21:56;;;;;;;12.57;8.07;;;;;;;;;;5014605;28;20029;-78
2023/12/02 02:24:22;;;;;;;12.70;7.88;;;;;;;;;;5038411;28;20473;-77
2023/12/02 02:26:48;;;;;;;13.70;8.38;;;;;;;;;;5015140;28;20469;-78
2023/12/02 02:29:14;;;;;;;15.77;8.73;;;;;;;;;;5004649;28;20045;-77
2023/12/02 02:31:40;;;;;;;15.10;8.88;;;;;;;;;;5023942;28;20061;-78
2023/12/02 02:34:06;;;;;;;13.80;8.70;;;;;;;;;;5014769;28;20022;-76
2023/12/02 02:36:32;;;;;;;14.48;9.02;;;;;;;;;;5028197;28;20030;-77
2023/12/02 02:38:58;;;;;;;15.05;9.30;;;;;;;;;;5020520;28;20026;-79
2023/12/02 02:41:24;;;;;;;13.18;8.60;;;;;;;;;;5011614;28;20026;-78
2023/12/02 02:43:51;;;;;;;12.48;7.60;;;;;;;;;;5016822;28;20094;-77
2023/12/02 02:46:17;;;;;;;12.77;8.73;;;;;;;;;;5017987;28;20018;-78
2023/12/02 02:48:43;;;;;;;13.00;7.50;;;;;;;;;;5000175;28;20050;-78
2023/12/02 02:51:09;;;;;;;14.27;8.77;;;;;;;;;;5007232;28;20029;-79
2023/12/02 02:53:35;;;;;;;14.07;8.25;;;;;;;;;;5006546;28;20018;-79
2023/12/02 02:56:01;;;;;;;13.18;7.90;;;;;;;;;;5000727;28;20031;-79
2023/12/02 02:58:29;;;;;;;12.32;7.60;;;;;;;;;;5010233;28;20065;-79
2023/12/02 03:00:55;;;;;;;12.25;7.63;;;;;;;;;;5019969;28;20432;-79
2023/12/02 03:03:21;;;;;;;12.43;7.65;;;;;;;;;;5007718;28;20026;-79
2023/12/02 03:05:47;;;;;;;13.43;7.20;;;;;;;;;;5006450;28;20029;-79
2023/12/02 03:08:13;;;;;;;15.18;8.82;;;;;;;;;;5025883;28;20029;-80
2023/12/02 03:10:39;;;;;;;12.18;7.35;;;;;;;;;;5002935;28;20101;-79
2023/12/02 03:13:05;;;;;;;11.65;7.43;;;;;;;;;;5006084;28;20030;-79
2023/12/02 03:15:31;;;;;;;13.15;7.50;;;;;;;;;;5011097;28;20026;-79
2023/12/02 03:17:57;;;;;;;11.52;6.80;;;;;;;;;;5011012;28;20034;-78
2023/12/02 03:20:23;;;;;;;12.63;7.95;;;;;;;;;;5002300;28;20030;-79
2023/12/02 03:22:50;;;;;;;12.32;7.22;;;;;;;;;;5001464;28;20034;-79
2023/12/02 03:25:17;;;;;;;14.05;8.38;;;;;;;;;;5000145;28;20105;-79
2023/12/02 03:27:43;;;;;;;13.55;8.05;;;;;;;;;;4998389;28;20014;-78
2023/12/02 03:30:09;;;;;;;11.32;7.18;;;;;;;;;;5004896;28;20026;-79
2023/12/02 03:32:38;;;;;;;12.77;7.97;;;;;;;;;;4998990;28;20026;-79
2023/12/02 03:35:05;;;;;;;14.85;8.73;;;;;;;;;;5013255;28;20018;-81
2023/12/02 03:37:31;;;;;;;13.77;8.95;;;;;;;;;;5011824;28;20033;-78
2023/12/02 03:39:58;;;;;;;12.45;8.38;;;;;;;;;;5011928;28;20409;-79
2023/12/02 03:42:24;;;;;;;13.40;7.80;;;;;;;;;;5008623;28;20373;-78
2023/12/02 03:44:50;;;;;;;13.15;8.90;;;;;;;;;;5019468;28;20050;-79
2023/12/02 03:47:16;;;;;;;13.98;8.98;;;;;;;;;;5003292;28;20528;-78
2023/12/02 03:49:42;;;;;;;13.75;9.10;;;;;;;;;;5004558;28;20041;-79
2023/12/02 03:52:09;;;;;;;12.43;7.68;;;;;;;;;;5005125;28;20022;-78
2023/12/02 03:54:35;;;;;;;14.13;8.07;;;;;;;;;;5006896;28;20045;-79
2023/12/02 03:57:01;;;;;;;13.90;7.93;;;;;;;;;;5009434;28;20026;-78
2023/12/02 03:59:27;;;;;;;12.93;7.55;;;;;;;;;;5008080;28;20018;-79
2023/12/02 04:01:53;;;;;;;13.35;7.75;;;;;;;;;;5010167;28;20061;-80
2023/12/02 04:04:19;;;;;;;14.07;7.72;;;;;;;;;;5016940;28;20037;-80
2023/12/02 04:06:45;;;;;;;13.07;8.30;;;;;;;;;;5011303;28;20465;-80
2023/12/02 04:09:11;;;;;;;11.25;8.23;;;;;;;;;;5013652;28;20065;-79
2023/12/02 04:11:37;;;;;;;13.32;8.27;;;;;;;;;;5029958;28;20474;-79
2023/12/02 04:14:03;;;;;;;18.40;10.50;;;;;;;;;;5026792;28;20369;-78
2023/12/02 04:16:29;;;;;;;16.13;10.63;;;;;;;;;;5023057;28;20032;-75
2023/12/02 04:18:55;;;;;;;13.38;9.23;;;;;;;;;;5026025;28;20026;-76
2023/12/02 04:21:23;;;;;;;16.20;9.38;;;;;;;;;;5034497;28;20014;-76
2023/12/02 04:23:49;;;;;;;14.77;9.50;;;;;;;;;;5019856;28;20007;-80
2023/12/02 04:26:15;;;;;;;15.90;8.85;;;;;;;;;;5003354;28;20045;-79
2023/12/02 04:28:42;;;;;;;12.30;7.63;;;;;;;;;;5010902;28;20033;-79
2023/12/02 04:31:08;;;;;;;11.57;7.50;;;;;;;;;;5007533;28;20030;-81
2023/12/02 04:33:34;;;;;;;11.95;7.30;;;;;;;;;;5013224;28;20052;-80
2023/12/02 04:36:00;;;;;;;16.98;9.55;;;;;;;;;;5005300;28;20549;-77
2023/12/02 04:38:26;;;;;;;15.82;9.05;;;;;;;;;;5022477;28;20037;-77
2023/12/02 04:40:52;;;;;;;20.38;12.05;;;;;;;;;;5016229;28;20046;-79
2023/12/02 04:43:18;;;;;;;17.38;10.07;;;;;;;;;;5023310;28;20022;-77
2023/12/02 04:45:44;;;;;;;17.42;9.95;;;;;;;;;;5006732;28;20044;-76
2023/12/02 04:48:11;;;;;;;17.50;9.85;;;;;;;;;;5027346;28;20026;-76
2023/12/02 04:50:37;;;;;;;16.27;9.73;;;;;;;;;;5025744;28;20026;-77
2023/12/02 04:53:04;;;;;;;15.00;9.15;;;;;;;;;;5013733;28;20029;-77
2023/12/02 04:55:30;;;;;;;17.20;10.25;;;;;;;;;;5020567;28;20030;-77
2023/12/02 04:57:56;;;;;;;16.40;9.35;;;;;;;;;;5005381;28;20025;-77
2023/12/02 05:00:23;;;;;;;13.63;8.93;;;;;;;;;;5011261;28;20510;-79
2023/12/02 05:02:49;;;;;;;16.88;10.10;;;;;;;;;;5013169;28;20057;-79
2023/12/02 05:05:16;;;;;;;14.05;9.30;;;;;;;;;;5012928;28;20065;-79
2023/12/02 05:07:43;;;;;;;18.00;9.88;;;;;;;;;;5018288;28;20018;-78
2023/12/02 05:10:10;;;;;;;16.90;9.48;;;;;;;;;;5017045;28;20053;-78
2023/12/02 05:12:36;;;;;;;15.23;9.05;;;;;;;;;;5013575;28;20030;-82
2023/12/02 05:15:02;;;;;;;14.18;8.68;;;;;;;;;;5009376;28;20023;-80
2023/12/02 05:17:28;;;;;;;15.30;9.25;;;;;;;;;;5005252;28;20034;-79
2023/12/02 05:19:54;;;;;;;18.65;10.98;;;;;;;;;;5005448;28;20149;-79
2023/12/02 05:22:20;;;;;;;16.67;10.57;;;;;;;;;;5005837;28;20030;-81
2023/12/02 05:24:46;;;;;;;16.85;10.02;;;;;;;;;;5011117;28;20026;-81
2023/12/02 05:27:12;;;;;;;18.42;10.77;;;;;;;;;;5014759;28;20106;-78
2023/12/02 05:29:39;;;;;;;19.38;10.98;;;;;;;;;;5001695;28;20069;-79
2023/12/02 05:32:05;;;;;;;22.38;11.50;;;;;;;;;;5004922;28;20023;-80
2023/12/02 05:34:33;;;;;;;18.38;10.55;;;;;;;;;;5004810;28;20054;-80
2023/12/02 05:37:00;;;;;;;19.33;11.27;;;;;;;;;;5012688;28;20030;-80
2023/12/02 05:39:26;;;;;;;17.88;10.27;;;;;;;;;;5012487;28;20041;-80
2023/12/02 05:41:52;;;;;;;17.27;10.88;;;;;;;;;;5020737;28;20029;-79
2023/12/02 05:44:19;;;;;;;19.45;10.93;;;;;;;;;;5007848;28;20014;-79
2023/12/02 05:46:45;;;;;;;23.38;12.48;;;;;;;;;;5015067;28;20095;-78
2023/12/02 05:49:11;;;;;;;22.42;13.23;;;;;;;;;;4999629;28;20030;-78
2023/12/02 05:51:40;;;;;;;20.77;10.98;;;;;;;;;;5005877;28;20108;-77
2023/12/02 05:54:07;;;;;;;22.63;12.43;;;;;;;;;;5004360;28;20421;-79
2023/12/02 05:56:34;;;;;;;18.55;11.07;;;;;;;;;;5005182;28;20098;-78
2023/12/02 05:59:00;;;;;;;21.92;12.32;;;;;;;;;;5001240;28;20014;-79
2023/12/02 06:01:26;;;;;;;22.17;11.68;;;;;;;;;;5009140;28;20025;-78
2023/12/02 06:03:52;;;;;;;23.45;12.10;;;;;;;;;;5013974;28;20049;-78
2023/12/02 06:06:19;;;;;;;18.98;11.43;;;;;;;;;;5013620;28;20027;-81
2023/12/02 06:08:45;;;;;;;22.38;11.75;;;;;;;;;;4999802;28;20031;-81
2023/12/02 06:11:11;;;;;;;22.20;12.18;;;;;;;;;;5014939;28;20030;-80
2023/12/02 06:13:37;;;;;;;19.02;11.07;;;;;;;;;;5017625;28;20049;-81
2023/12/02 06:16:04;;;;;;;16.08;9.75;;;;;;;;;;5029671;28;20037;-82
2023/12/02 06:18:30;;;;;;;16.27;9.60;;;;;;;;;;5026149;28;20472;-80
2023/12/02 06:20:57;;;;;;;16.00;9.30;;;;;;;;;;5024742;28;20023;-79
2023/12/02 06:23:23;;;;;;;21.33;12.10;;;;;;;;;;5001053;28;20027;-79
2023/12/02 06:25:49;;;;;;;24.33;12.88;;;;;;;;;;5016453;28;20018;-75
2023/12/02 06:28:15;;;;;;;22.25;11.45;;;;;;;;;;5032430;28;20014;-77
2023/12/02 06:30:42;;;;;;;20.13;11.02;;;;;;;;;;5037257;28;20044;-77
2023/12/02 06:33:08;;;;;;;18.55;10.48;;;;;;;;;;5027833;28;20073;-75
2023/12/02 06:35:34;;;;;;;17.98;10.20;;;;;;;;;;5019911;28;20226;-76
2023/12/02 06:38:00;;;;;;;14.80;8.73;;;;;;;;;;5021318;28;20022;-76
2023/12/02 06:40:26;;;;;;;23.92;12.25;;;;;;;;;;5021525;28;20010;-76
2023/12/02 06:42:52;;;;;;;18.40;10.30;;;;;;;;;;5012933;28;20078;-77
2023/12/02 06:45:18;;;;;;;23.38;12.70;;;;;;;;;;5029055;28;20014;-77
2023/12/02 06:47:44;;;;;;;21.10;11.77;;;;;;;;;;5029483;28;20026;-79
2023/12/02 06:50:11;;;;;;;24.23;12.63;;;;;;;;;;5011558;28;20018;-80
2023/12/02 06:52:37;;;;;;;19.65;11.25;;;;;;;;;;5006396;28;20114;-79
2023/12/02 06:55:03;;;;;;;16.80;10.80;;;;;;;;;;5009568;28;20393;-79
2023/12/02 06:57:31;;;;;;;17.17;9.90;;;;;;;;;;5006063;28;20026;-80
2023/12/02 06:59:57;;;;;;;21.17;11.20;;;;;;;;;;5015761;28;20105;-79
2023/12/02 07:02:23;;;;;;;18.95;10.40;;;;;;;;;;5030240;28;20018;-76
2023/12/02 07:04:49;;;;;;;20.42;11.25;;;;;;;;;;5016998;28;20034;-77
2023/12/02 07:07:15;;;;;;;18.92;11.02;;;;;;;;;;5010191;28;20401;-81
2023/12/02 07:09:41;;;;;;;21.10;12.43;;;;;;;;;;5004020;28;20377;-77
2023/12/02 07:12:07;;;;;;;20.50;10.65;;;;;;;;;;5026421;28;20042;-76
2023/12/02 07:14:33;;;;;;;17.75;10.45;;;;;;;;;;5035104;28;20097;-79
2023/12/02 07:17:00;;;;;;;18.17;10.35;;;;;;;;;;5008623;28;20065;-80
2023/12/02 07:19:26;;;;;;;19.23;11.27;;;;;;;;;;5006840;28;20033;-79
2023/12/02 07:21:52;;;;;;;19.92;10.82;;;;;;;;;;5024495;28;20029;-80
2023/12/02 07:24:18;;;;;;;20.15;10.77;;;;;;;;;;5009881;28;20564;-81
2023/12/02 07:26:45;;;;;;;17.65;9.65;;;;;;;;;;5022986;28;20445;-81
2023/12/02 07:29:12;;;;;;;16.73;9.48;;;;;;;;;;5011999;28;20018;-81
2023/12/02 07:31:38;;;;;;;17.33;9.82;;;;;;;;;;5016772;28;20030;-81
2023/12/02 07:34:04;;;;;;;17.17;10.60;;;;;;;;;;5009439;28;20448;-82
2023/12/02 07:36:30;;;;;;;19.27;10.25;;;;;;;;;;5023247;28;20436;-80
2023/12/02 07:38:56;;;;;;;19.58;10.25;;;;;;;;;;5020496;28;20018;-79
2023/12/02 07:41:22;;;;;;;18.52;9.85;;;;;;;;;;5006397;28;20028;-79
2023/12/02 07:43:48;;;;;;;18.23;10.73;;;;;;;;;;5006819;28;20389;-79
2023/12/02 07:46:14;;;;;;;17.60;9.45;;;;;;;;;;5012688;28;20026;-80
2023/12/02 07:48:41;;;;;;;19.15;10.63;;;;;;;;;;5006253;28;20065;-81
2023/12/02 07:51:07;;;;;;;15.60;9.65;;;;;;;;;;5005241;28;20466;-82
2023/12/02 07:53:33;;;;;;;19.80;10.45;;;;;;;;;;5012028;28;20118;-81
2023/12/02 07:55:59;;;;;;;23.88;12.25;;;;;;;;;;5017552;28;20027;-81
2023/12/02 07:58:25;;;;;;;16.92;10.55;;;;;;;;;;5011323;28;20091;-83
2023/12/02 08:00:51;;;;;;;17.02;9.75;;;;;;;;;;5004290;28;20026;-81
2023/12/02 08:03:17;;;;;;;17.55;10.25;;;;;;;;;;5002256;28;20022;-81
2023/12/02 08:05:44;;;;;;;16.80;9.90;;;;;;;;;;5013673;28;20088;-81
2023/12/02 08:08:10;;;;;;;17.13;10.82;;;;;;;;;;5022812;28;20426;-81
2023/12/02 08:10:36;;;;;;;18.80;10.73;;;;;;;;;;5015397;28;20022;-80
2023/12/02 08:13:03;;;;;;;18.38;10.07;;;;;;;;;;5005003;28;20049;-80
2023/12/02 08:15:32;;;;;;;15.55;9.35;;;;;;;;;;5003928;28;20366;-79
2023/12/02 08:17:58;;;;;;;18.80;10.20;;;;;;;;;;5013955;28;20022;-81
2023/12/02 08:20:24;;;;;;;19.75;11.15;;;;;;;;;;5008307;28;20023;-81
2023/12/02 08:22:50;;;;;;;16.55;9.45;;;;;;;;;;5003227;28;20025;-81
2023/12/02 08:25:16;;;;;;;17.27;10.10;;;;;;;;;;5007723;28;20011;-81
2023/12/02 08:27:42;;;;;;;17.88;9.77;;;;;;;;;;5031068;28;20059;-80
2023/12/02 08:30:08;;;;;;;17.92;9.40;;;;;;;;;;5009723;28;20039;-79
2023/12/02 08:32:34;;;;;;;18.02;9.70;;;;;;;;;;5017331;28;20060;-78
2023/12/02 08:35:00;;;;;;;19.30;9.25;;;;;;;;;;5025861;28;20033;-79
2023/12/02 08:37:27;;;;;;;15.98;9.65;;;;;;;;;;5022405;28;20400;-79
2023/12/02 08:39:54;;;;;;;16.42;10.02;;;;;;;;;;5007877;28;20042;-80
2023/12/02 08:42:20;;;;;;;17.20;10.68;;;;;;;;;;5009867;28;20082;-79
2023/12/02 08:44:46;;;;;;;18.00;9.45;;;;;;;;;;5008110;28;20080;-81
2023/12/02 08:47:12;;;;;;;18.27;9.60;;;;;;;;;;5024432;28;20026;-77
2023/12/02 08:49:38;;;;;;;17.90;10.35;;;;;;;;;;5014684;28;20034;-77
2023/12/02 08:52:05;;;;;;;14.10;8.57;;;;;;;;;;5021025;28;20073;-80
2023/12/02 08:54:31;;;;;;;17.40;9.98;;;;;;;;;;5007531;28;20026;-80
2023/12/02 08:56:57;;;;;;;16.33;9.40;;;;;;;;;;5020426;28;20113;-80
2023/12/02 08:59:23;;;;;;;17.35;9.98;;;;;;;;;;5032960;28;20149;-78
2023/12/02 09:01:49;;;;;;;17.95;9.90;;;;;;;;;;5020044;28;20051;-81
2023/12/02 09:04:16;;;;;;;15.77;9.52;;;;;;;;;;5011411;28;20023;-80
2023/12/02 09:06:42;;;;;;;17.88;9.60;;;;;;;;;;5009996;28;20037;-78
2023/12/02 09:09:08;;;;;;;19.23;9.98;;;;;;;;;;5012668;28;20007;-77
2023/12/02 09:11:34;;;;;;;17.40;9.88;;;;;;;;;;5017170;28;20027;-80
2023/12/02 09:14:00;;;;;;;19.90;9.00;;;;;;;;;;5019825;28;20029;-79
2023/12/02 09:16:28;;;;;;;15.73;9.63;;;;;;;;;;5013218;28;20026;-79
2023/12/02 09:18:54;;;;;;;15.15;9.55;;;;;;;;;;5027691;28;20057;-79
2023/12/02 09:21:38;;;;;;;16.60;9.65;;;;;;;;;;5014503;28;20048;-80
2023/12/02 09:24:34;;;;;;;17.92;10.23;;;;;;;;;;5014747;28;20028;-81
2023/12/02 09:27:00;;;;;;;19.40;10.27;;;;;;;;;;5024188;28;20077;-81
2023/12/02 09:29:35;;;;;;;16.65;9.70;;;;;;;;;;5016826;28;20026;-81
2023/12/02 09:32:08;;;;;;;19.27;10.57;;;;;;;;;;5009994;28;20092;-80
2023/12/02 09:34:40;;;;;;;19.13;10.60;;;;;;;;;;5014510;28;20034;-79
2023/12/02 09:37:06;;;;;;;;;;;;;;;;;;5000803;28;20026;-80
2023/12/02 09:39:44;;;;;;;15.95;9.20;;;;;;;;;;5007544;28;19909;-80
2023/12/02 09:42:10;;;;;;;18.80;10.77;;;;;;;;;;5019982;28;20049;-80
2023/12/02 09:44:44;;;;;;;19.92;11.45;;;;;;;;;;5012641;28;20110;-81
2023/12/02 09:47:23;;;;;;;19.00;11.10;;;;;;;;;;5013893;28;20026;-79
2023/12/02 09:50:09;;;;;;;22.13;12.23;;;;;;;;;;5013673;28;20029;-79
2023/12/02 09:52:54;;;;;;;20.55;11.00;;;;;;;;;;5014584;28;20026;-80
2023/12/02 09:55:29;;;;;;;18.77;10.88;;;;;;;;;;5018594;28;20022;-80
2023/12/02 09:58:21;;;;;;;18.75;10.23;;;;;;;;;;5022833;28;20397;-79
2023/12/02 10:00:53;;;;;;;19.30;10.13;;;;;;;;;;5013553;28;20025;-80
2023/12/02 10:03:22;;;;;;;20.17;11.43;;;;;;;;;;5015926;28;20041;-80
2023/12/02 10:05:48;;;;;;;19.20;11.23;;;;;;;;;;5021671;28;20056;-81
2023/12/02 10:08:26;;;;;;;19.63;10.95;;;;;;;;;;5011177;28;20022;-78
2023/12/02 10:11:04;;;;;;;19.15;10.07;;;;;;;;;;5012673;28;20037;-78
2023/12/02 10:13:30;;;;;;;16.73;9.60;;;;;;;;;;5013885;28;20094;-77
2023/12/02 10:16:00;;;;;;;18.17;9.85;;;;;;;;;;5014211;28;20030;-77
2023/12/02 10:18:29;;;;;;;17.25;10.48;;;;;;;;;;5018872;28;20109;-78
2023/12/02 10:21:01;;;;;;;19.63;11.25;;;;;;;;;;5014753;28;20053;-78
2023/12/02 10:23:37;;;;;;;18.83;10.77;;;;;;;;;;5022618;28;20033;-78
2023/12/02 10:26:14;;;;;;;17.50;10.30;;;;;;;;;;5011320;28;20034;-79
2023/12/02 10:28:59;;;;;;;22.70;11.40;;;;;;;;;;5021752;28;20014;-78
2023/12/02 10:31:27;;;;;;;20.20;10.93;;;;;;;;;;5030553;28;20030;-80
2023/12/02 10:34:05;;;;;;;23.88;12.07;;;;;;;;;;5024018;28;20061;-81
2023/12/02 10:36:33;;;;;;;19.13;10.57;;;;;;;;;;5020744;28;20030;-81
2023/12/02 10:39:09;;;;;;;20.30;11.45;;;;;;;;;;5028869;28;20044;-80
2023/12/02 10:41:44;;;;;;;19.63;10.98;;;;;;;;;;5026132;28;20400;-78
2023/12/02 10:44:11;;;;;;;18.08;10.85;;;;;;;;;;5016051;28;20018;-77
2023/12/02 10:46:39;;;;;;;19.30;10.88;;;;;;;;;;5034292;28;20037;-78
2023/12/02 10:49:06;;;;;;;23.50;11.20;;;;;;;;;;5034775;28;20053;-78
2023/12/02 10:51:37;;;;;;;21.08;10.88;;;;;;;;;;5031600;28;20026;-78
2023/12/02 10:54:05;;;;;;;20.58;9.98;;;;;;;;;;5020454;28;20031;-78
2023/12/02 10:56:35;;;;;;;15.98;9.80;;;;;;;;;;5017643;28;20054;-76
2023/12/02 10:59:03;;;;;;;18.85;10.63;;;;;;;;;;5020437;28;20046;-79
2023/12/02 11:01:41;;;;;;;18.52;10.52;;;;;;;;;;5018297;28;20086;-78
2023/12/02 11:04:13;;;;;;;21.13;10.77;;;;;;;;;;5012113;28;20022;-80
2023/12/02 11:06:40;;;;;;;20.52;11.43;;;;;;;;;;5008604;28;20115;-80
2023/12/02 11:09:25;;;;;;;16.30;9.52;;;;;;;;;;5020900;28;20025;-81
2023/12/02 11:12:04;;;;;;;18.17;9.35;;;;;;;;;;5007411;28;20026;-81
2023/12/02 11:14:34;;;;;;;19.38;10.30;;;;;;;;;;5037965;28;20370;-80
2023/12/02 11:17:07;;;;;;;19.23;10.43;;;;;;;;;;5013201;28;20126;-81
2023/12/02 11:19:33;;;;;;;20.92;11.20;;;;;;;;;;5013074;28;20034;-79
2023/12/02 11:22:18;;;;;;;15.68;9.35;;;;;;;;;;5011036;28;20022;-84
2023/12/02 11:24:59;;;;;;;17.88;10.40;;;;;;;;;;5014580;28;20041;-79
2023/12/02 11:27:41;;;;;;;18.95;10.00;;;;;;;;;;5021384;28;20022;-80
2023/12/02 11:30:25;;;;;;;20.73;10.63;;;;;;;;;;5012321;28;20023;-81
2023/12/02 11:33:24;;;;;;;19.70;10.13;;;;;;;;;;5017914;28;21076;-79
2023/12/02 11:35:53;;;;;;;17.10;9.73;;;;;;;;;;4998964;28;20401;-80
2023/12/02 11:38:20;;;;;;;18.67;10.27;;;;;;;;;;5020264;28;20054;-79
2023/12/02 11:40:57;;;;;;;16.73;9.60;;;;;;;;;;5000743;28;20046;-79
2023/12/02 11:43:42;;;;;;;15.50;9.57;;;;;;;;;;5002401;28;20054;-79
2023/12/02 11:46:18;;;;;;;19.52;9.80;;;;;;;;;;5002878;28;20072;-79
2023/12/02 11:49:36;;;;;;;15.23;9.02;;;;;;;;;;5008137;28;20022;-82
2023/12/02 11:55:27;;;;;;;15.45;9.10;;;;;;;;;;4968008;28;20026;-78
2023/12/02 11:58:03;;;;;;;16.52;9.50;;;;;;;;;;5032741;28;20038;-80
2023/12/02 12:01:02;;;;;;;14.57;9.38;;;;;;;;;;5036141;28;20027;-79
2023/12/02 12:04:04;;;;;;;19.00;9.30;;;;;;;;;;5007835;28;20060;-79
2023/12/02 12:06:35;;;;;;;16.15;9.23;;;;;;;;;;4958957;29;20035;-79
2023/12/02 12:09:08;;;;;;;17.10;9.05;;;;;;;;;;5018233;28;20038;-78
2023/12/02 12:11:34;;;;;;;;;;;;;;;;;;5045426;28;20029;-79
2023/12/02 12:14:01;;;;;;;19.38;9.40;;;;;;;;;;5028696;28;19905;-80
2023/12/02 12:16:27;;;;;;;14.63;8.90;;;;;;;;;;5009221;28;20065;-78
2023/12/02 12:18:53;;;;;;;15.73;8.35;;;;;;;;;;5020442;28;20030;-78
2023/12/02 12:21:19;;;;;;;18.77;9.20;;;;;;;;;;5038563;28;20044;-78
2023/12/02 12:23:47;;;;;;;17.63;9.80;;;;;;;;;;5028893;28;20050;-79
2023/12/02 12:26:13;;;;;;;17.17;9.63;;;;;;;;;;5040722;28;20026;-78
2023/12/02 12:28:39;;;;;;;15.80;9.50;;;;;;;;;;5018673;28;20025;-80
2023/12/02 12:31:09;;;;;;;15.63;8.73;;;;;;;;;;5027406;28;20023;-80
2023/12/02 12:33:40;;;;;;;17.70;10.07;;;;;;;;;;5023578;28;20042;-78
2023/12/02 12:36:06;;;;;;;16.35;8.82;;;;;;;;;;5016422;28;20125;-79
2023/12/02 12:38:33;;;;;;;15.52;9.45;;;;;;;;;;5012647;28;20026;-78
2023/12/02 12:40:59;;;;;;;14.05;9.10;;;;;;;;;;5012102;28;20022;-77
2023/12/02 12:43:25;;;;;;;18.55;10.05;;;;;;;;;;5021005;28;20029;-78
2023/12/02 12:45:54;;;;;;;16.75;8.90;;;;;;;;;;5010674;28;20022;-79
2023/12/02 12:48:27;;;;;;;17.20;9.20;;;;;;;;;;5014866;28;20029;-79
2023/12/02 12:50:56;;;;;;;13.88;8.23;;;;;;;;;;5014141;28;20018;-79
2023/12/02 12:53:28;;;;;;;18.33;8.90;;;;;;;;;;5006523;28;20477;-79
2023/12/02 12:55:58;;;;;;;15.60;9.27;;;;;;;;;;5017538;28;20478;-79
2023/12/02 12:58:27;;;;;;;16.48;9.55;;;;;;;;;;5026228;28;20029;-79
2023/12/02 13:00:53;;;;;;;22.00;11.68;;;;;;;;;;5012130;28;20121;-78
2023/12/02 13:03:19;;;;;;;18.48;10.38;;;;;;;;;;5013396;28;20014;-80
2023/12/02 13:05:50;;;;;;;16.83;9.48;;;;;;;;;;5014491;28;20087;-78
2023/12/02 13:08:22;;;;;;;16.95;9.82;;;;;;;;;;5017255;28;20393;-80
2023/12/02 13:10:49;;;;;;;14.90;8.45;;;;;;;;;;5001938;28;20102;-79
2023/12/02 13:13:17;;;;;;;15.95;8.38;;;;;;;;;;5012339;28;20022;-79
2023/12/02 13:15:45;;;;;;;14.75;8.60;;;;;;;;;;5008392;28;20092;-79
2023/12/02 13:18:13;;;;;;;17.70;9.93;;;;;;;;;;5030524;28;20010;-80
2023/12/02 13:20:42;;;;;;;16.10;9.20;;;;;;;;;;5037681;28;20021;-78
2023/12/02 13:23:08;;;;;;;18.73;10.57;;;;;;;;;;5034109;28;20077;-79
2023/12/02 13:25:38;;;;;;;15.80;9.48;;;;;;;;;;5034593;28;20018;-78
2023/12/02 13:28:14;;;;;;;17.33;9.88;;;;;;;;;;5032658;28;20328;-78
2023/12/02 13:30:40;;;;;;;18.63;10.18;;;;;;;;;;5016177;28;20030;-77
2023/12/02 13:33:14;;;;;;;14.13;8.63;;;;;;;;;;5032962;28;20018;-77
2023/12/02 13:35:43;;;;;;;18.25;10.30;;;;;;;;;;5029104;28;20013;-78
2023/12/02 13:38:20;;;;;;;16.83;10.23;;;;;;;;;;5030193;28;20020;-78
2023/12/02 13:40:56;;;;;;;21.92;11.93;;;;;;;;;;5030519;28;20089;-78
2023/12/02 13:43:25;;;;;;;20.88;10.80;;;;;;;;;;5024485;28;20016;-78
2023/12/02 13:45:55;;;;;;;21.15;12.13;;;;;;;;;;5023819;28;20033;-78
2023/12/02 13:48:34;;;;;;;20.45;12.23;;;;;;;;;;5027773;28;20036;-78
2023/12/02 13:51:04;;;;;;;20.55;11.73;;;;;;;;;;5040750;28;20077;-78
2023/12/02 13:53:45;;;;;;;21.58;12.48;;;;;;;;;;5026692;28;20048;-78
2023/12/02 13:56:20;;;;;;;23.38;12.23;;;;;;;;;;5034667;28;20030;-78
2023/12/02 13:59:06;;;;;;;17.42;10.98;;;;;;;;;;5024517;28;20014;-78
2023/12/02 14:01:34;;;;;;;23.08;12.30;;;;;;;;;;5022918;28;20038;-78
2023/12/02 14:04:06;;;;;;;22.85;12.50;;;;;;;;;;5012123;28;20030;-78
2023/12/02 14:06:42;;;;;;;23.20;13.15;;;;;;;;;;5021794;28;20041;-78
2023/12/02 14:09:09;;;;;;;23.75;13.23;;;;;;;;;;5017715;28;20087;-78
2023/12/02 14:11:38;;;;;;;25.48;14.50;;;;;;;;;;5033582;28;20072;-78
2023/12/02 14:14:27;;;;;;;22.85;14.77;;;;;;;;;;5037372;28;20033;-79
2023/12/02 14:17:03;;;;;;;22.60;12.70;;;;;;;;;;5014708;28;20093;-77
2023/12/02 14:19:44;;;;;;;24.35;14.13;;;;;;;;;;5024667;28;20045;-78
2023/12/02 14:22:10;;;;;;;22.30;13.98;;;;;;;;;;5023680;28;20013;-78
2023/12/02 14:24:54;;;;;;;22.52;11.85;;;;;;;;;;5033022;28;20058;-78
2023/12/02 14:27:23;;;;;;;28.40;15.40;;;;;;;;;;5023005;28;20047;-79
2023/12/02 14:29:52;;;;;;;24.17;14.02;;;;;;;;;;5028936;28;20018;-78
2023/12/02 14:32:59;;;;;;;22.30;12.48;;;;;;;;;;5043566;28;20485;-78
2023/12/02 14:35:34;;;;;;;24.90;13.23;;;;;;;;;;5009534;28;20018;-78
2023/12/02 14:38:13;;;;;;;21.48;12.30;;;;;;;;;;5002162;28;20026;-77